Watervliet, New York
Current Conditions -  °F | °C
As of 8:51 AM on Saturday 20 Dec 2014 (Local Time) from KALB Reporting Station
Scattered Clouds Scattered Clouds  
Wind Chill: 16°   Ceiling: Unl
Heat Index: 24°   Visibility: 10mi
Dew Point: 16°   Wind: 7mph
Humidity: 71%   Direction: 10°N
Pressure: 30.33"   Gusts: NA
Location:  42.73°N, 73.7°W
Report Text: KALB 201351Z 01006KT 10SM SCT020 M04/M09 A3033 RMK AO2 SLP277 T10441089
Loading
Personal Weather Stations






























Interactive Weather Map New forecast layout! Learn more

10-Day Weather Forecast

Advertisements
Track Severe Weather on mobile